createdAt,value
2023-11-24T00:02:51.049Z,25.10
2023-11-24T00:05:53.004Z,23.85
2023-11-24T00:08:55.061Z,24.42
2023-11-24T00:11:59.793Z,23.95
2023-11-24T00:15:05.320Z,24.45
2023-11-24T00:18:07.513Z,22.25
2023-11-24T00:21:10.589Z,23.67
2023-11-24T00:24:12.534Z,21.48
2023-11-24T00:27:14.512Z,21.88
2023-11-24T00:30:16.361Z,23.33
2023-11-24T00:33:21.680Z,21.83
2023-11-24T00:36:24.400Z,22.50
2023-11-24T00:39:26.345Z,20.98
2023-11-24T00:42:30.701Z,20.60
2023-11-24T00:45:32.612Z,23.95
2023-11-24T00:48:35.076Z,18.33
2023-11-24T00:51:37.335Z,19.58
2023-11-24T00:54:39.326Z,20.92
2023-11-24T00:57:41.313Z,19.05
2023-11-24T01:00:43.788Z,20.77
2023-11-24T01:03:45.774Z,20.42
2023-11-24T01:06:47.690Z,19.02
2023-11-24T01:09:51.382Z,18.67
2023-11-24T01:12:53.373Z,20.25
2023-11-24T01:15:55.391Z,19.45
2023-11-24T01:18:59.274Z,19.30
2023-11-24T01:22:01.243Z,23.80
2023-11-24T01:25:03.558Z,18.50
2023-11-24T01:28:05.402Z,17.48
2023-11-24T01:31:07.937Z,20.98
2023-11-24T01:34:10.557Z,19.95
2023-11-24T01:37:12.642Z,21.83
2023-11-24T01:40:19.046Z,20.67
2023-11-24T01:43:20.970Z,20.73
2023-11-24T01:46:22.994Z,20.05
2023-11-24T01:49:26.288Z,20.42
2023-11-24T01:52:28.684Z,19.55
2023-11-24T01:55:30.942Z,19.92
2023-11-24T01:58:33.017Z,20.92
2023-11-24T02:01:35.602Z,20.38
2023-11-24T02:04:37.690Z,18.92
2023-11-24T02:07:41.620Z,18.95
2023-11-24T02:10:44.106Z,17.55
2023-11-24T02:13:52.418Z,19.55
2023-11-24T02:19:58.486Z,17.38
2023-11-24T02:23:01.691Z,21.73
2023-11-24T02:26:04.241Z,19.67
2023-11-24T02:29:06.197Z,20.88
2023-11-24T02:32:09.483Z,21.05
2023-11-24T02:35:11.526Z,18.67
2023-11-24T02:38:13.572Z,18.55
2023-11-24T02:41:16.672Z,19.40
2023-11-24T02:44:18.729Z,18.75
2023-11-24T02:47:22.207Z,20.23
2023-11-24T02:50:24.166Z,21.17
2023-11-24T02:53:26.095Z,19.85
2023-11-24T02:56:28.264Z,19.75
2023-11-24T02:59:30.713Z,20.00
2023-11-24T03:02:33.183Z,19.52
2023-11-24T03:05:35.801Z,21.30
2023-11-24T03:08:37.707Z,20.42
2023-11-24T03:11:39.708Z,21.85
2023-11-24T03:14:44.196Z,21.88
2023-11-24T03:17:46.200Z,22.58
2023-11-24T03:20:49.315Z,21.77
2023-11-24T03:23:51.366Z,20.05
2023-11-24T03:26:53.308Z,19.73
2023-11-24T03:29:56.043Z,21.38
2023-11-24T03:32:57.920Z,21.10
2023-11-24T03:36:00.571Z,22.27
2023-11-24T03:39:02.862Z,23.08
2023-11-24T03:42:04.986Z,22.85
2023-11-24T03:45:07.730Z,20.45
2023-11-24T03:48:09.884Z,25.17
2023-11-24T03:51:11.993Z,23.73
2023-11-24T03:54:13.895Z,22.73
2023-11-24T03:57:15.986Z,21.27
2023-11-24T04:00:18.301Z,20.42
2023-11-24T04:03:20.270Z,21.10
2023-11-24T04:06:22.409Z,20.33
2023-11-24T04:09:26.467Z,21.10
2023-11-24T04:12:29.103Z,19.20
2023-11-24T04:15:31.023Z,19.40
2023-11-24T04:18:33.948Z,20.45
2023-11-24T04:21:37.353Z,21.58
2023-11-24T04:24:40.289Z,24.20
2023-11-24T04:27:42.299Z,21.48
2023-11-24T04:30:44.514Z,26.20
2023-11-24T04:33:46.533Z,21.55
2023-11-24T04:36:49.133Z,23.00
2023-11-24T04:39:51.209Z,21.55
2023-11-24T04:42:56.348Z,21.85
2023-11-24T04:45:58.445Z,21.67
2023-11-24T04:49:05.063Z,24.10
2023-11-24T04:52:07.238Z,22.52
2023-11-24T04:55:09.449Z,23.45
2023-11-24T04:58:15.310Z,24.48
2023-11-24T05:01:19.452Z,25.05
2023-11-24T05:04:22.246Z,27.48
2023-11-24T05:07:25.042Z,25.63
2023-11-24T05:10:26.967Z,25.75
2023-11-24T05:13:28.954Z,24.15
2023-11-24T05:16:31.192Z,25.13
2023-11-24T05:19:33.464Z,27.80
2023-11-24T05:22:35.433Z,29.60
2023-11-24T05:25:37.344Z,30.27
2023-11-24T05:28:39.363Z,33.60
2023-11-24T05:31:41.627Z,31.00
2023-11-24T05:34:43.581Z,27.13
2023-11-24T05:37:45.705Z,29.77
2023-11-24T05:40:47.774Z,26.73
2023-11-24T05:43:49.868Z,28.13
2023-11-24T05:46:51.902Z,27.23
2023-11-24T05:49:53.907Z,25.98
2023-11-24T05:52:55.746Z,26.15
2023-11-24T05:55:58.361Z,25.70
2023-11-24T05:59:00.250Z,29.98
2023-11-24T06:02:04.696Z,30.38
2023-11-24T06:05:07.202Z,30.58
2023-11-24T06:08:09.301Z,28.13
2023-11-24T06:11:11.173Z,30.67
2023-11-24T06:14:14.233Z,32.67
2023-11-24T06:17:16.603Z,27.77
2023-11-24T06:20:21.407Z,29.77
2023-11-24T06:23:23.937Z,29.02
2023-11-24T06:26:27.935Z,33.55
2023-11-24T06:29:29.855Z,29.95
2023-11-24T06:32:32.276Z,30.48
2023-11-24T06:35:34.175Z,32.42
2023-11-24T06:38:36.151Z,32.58
2023-11-24T06:41:38.906Z,34.40
2023-11-24T06:44:40.742Z,31.77
2023-11-24T06:47:43.195Z,31.75
2023-11-24T06:50:45.109Z,32.53
2023-11-24T06:53:47.757Z,30.95
2023-11-24T06:56:49.672Z,28.88
2023-11-24T06:59:51.488Z,27.92
2023-11-24T07:02:53.458Z,29.58
2023-11-24T07:05:55.368Z,31.70
2023-11-24T07:08:57.632Z,31.35
2023-11-24T07:11:59.498Z,32.17
2023-11-24T07:15:04.717Z,33.70
2023-11-24T07:18:06.736Z,30.92
2023-11-24T07:21:09.085Z,36.95
2023-11-24T07:24:11.080Z,31.70
2023-11-24T07:27:13.000Z,32.83
2023-11-24T07:30:15.439Z,33.80
2023-11-24T07:33:17.733Z,32.65
2023-11-24T07:36:22.923Z,31.35
2023-11-24T07:39:25.886Z,28.80
2023-11-24T07:42:27.765Z,32.15
2023-11-24T07:45:29.638Z,31.70
2023-11-24T07:48:31.577Z,28.80
2023-11-24T07:51:33.849Z,33.85
2023-11-24T07:54:35.891Z,31.80
2023-11-24T07:57:38.018Z,32.63
2023-11-24T08:00:41.491Z,31.08
2023-11-24T08:03:43.643Z,31.35
2023-11-24T08:06:46.637Z,30.63
2023-11-24T08:09:48.992Z,28.50
2023-11-24T08:12:50.838Z,33.65
2023-11-24T08:15:53.968Z,31.95
2023-11-24T08:18:56.607Z,31.35
2023-11-24T08:21:59.553Z,32.00
2023-11-24T08:25:01.590Z,31.92
2023-11-24T08:28:05.986Z,35.88
2023-11-24T08:31:08.035Z,36.95
2023-11-24T08:34:10.156Z,38.67
2023-11-24T08:37:12.239Z,32.10
2023-11-24T08:40:16.803Z,36.22
2023-11-24T08:43:19.518Z,43.10
2023-11-24T08:46:21.543Z,38.20
2023-11-24T08:49:23.570Z,46.10
2023-11-24T08:52:25.439Z,40.85
2023-11-24T08:55:27.289Z,42.50
2023-11-24T08:58:29.133Z,43.58
2023-11-24T09:01:31.239Z,39.05
2023-11-24T09:04:33.600Z,36.70
2023-11-24T09:07:38.186Z,38.47
2023-11-24T09:10:40.215Z,34.88
2023-11-24T09:13:42.073Z,32.83
2023-11-24T09:16:44.095Z,38.13
2023-11-24T09:19:46.017Z,37.28
2023-11-24T09:22:47.930Z,38.30
2023-11-24T09:25:52.622Z,39.17
2023-11-24T09:28:54.682Z,37.03
2023-11-24T09:31:59.530Z,46.95
2023-11-24T09:35:03.450Z,38.53
2023-11-24T09:38:06.041Z,36.13
2023-11-24T09:41:10.383Z,37.28
2023-11-24T09:44:16.366Z,39.08
2023-11-24T09:47:20.497Z,40.47
2023-11-24T09:50:28.917Z,37.95
2023-11-24T09:53:34.947Z,36.17
2023-11-24T09:56:37.248Z,43.45
2023-11-24T09:59:41.939Z,38.55
2023-11-24T10:02:45.282Z,37.67
2023-11-24T10:05:47.172Z,35.70
2023-11-24T10:08:49.117Z,36.90
2023-11-24T10:11:51.601Z,33.60
2023-11-24T10:14:55.664Z,35.67
2023-11-24T10:17:58.478Z,38.55
2023-11-24T10:21:01.313Z,31.67
2023-11-24T10:24:03.292Z,33.95
2023-11-24T10:27:22.529Z,34.70
2023-11-24T10:30:24.431Z,32.28
2023-11-24T10:33:35.146Z,33.30
2023-11-24T10:36:38.572Z,31.63
2023-11-24T10:39:45.803Z,32.67
2023-11-24T10:42:50.091Z,34.33
2023-11-24T10:45:52.682Z,38.80
2023-11-24T10:49:07.688Z,36.97
2023-11-24T10:52:28.743Z,40.13
2023-11-24T10:55:32.747Z,39.38
2023-11-24T10:58:35.106Z,41.05
2023-11-24T11:01:37.255Z,37.45
2023-11-24T11:04:43.759Z,38.85
2023-11-24T11:08:07.389Z,36.05
2023-11-24T11:11:37.532Z,39.83
2023-11-24T11:14:40.022Z,36.38
2023-11-24T11:17:42.862Z,34.58
2023-11-24T11:20:46.404Z,32.67
2023-11-24T11:23:57.993Z,32.55
2023-11-24T11:27:00.116Z,33.90
2023-11-24T11:30:16.072Z,34.50
2023-11-24T11:33:21.767Z,32.42
2023-11-24T11:36:27.071Z,30.10
2023-11-24T11:39:37.535Z,28.92
2023-11-24T11:42:53.756Z,29.27
2023-11-24T11:45:59.259Z,30.33
2023-11-24T11:49:10.128Z,30.05
2023-11-24T11:52:15.348Z,28.70
2023-11-24T11:55:24.320Z,29.88
2023-11-24T11:58:29.432Z,29.40
2023-11-24T12:01:33.928Z,32.75
2023-11-24T12:04:37.225Z,31.63
2023-11-24T12:07:41.114Z,33.92
2023-11-24T12:10:43.804Z,30.73
2023-11-24T12:13:45.624Z,28.92
2023-11-24T12:16:47.681Z,32.92
2023-11-24T12:19:50.205Z,33.22
2023-11-24T12:22:53.947Z,32.22
2023-11-24T12:25:56.752Z,39.15
2023-11-24T12:28:59.610Z,34.25
2023-11-24T12:32:05.115Z,33.67
2023-11-24T12:35:09.567Z,32.28
2023-11-24T12:38:12.434Z,38.70
2023-11-24T12:41:15.256Z,32.45
2023-11-24T12:44:17.888Z,30.13
2023-11-24T12:47:41.291Z,32.05
2023-11-24T12:50:47.109Z,31.90
2023-11-24T12:53:49.356Z,30.52
2023-11-24T12:56:51.217Z,29.05
2023-11-24T12:59:53.935Z,29.95
2023-11-24T13:02:57.105Z,27.65
2023-11-24T13:05:59.010Z,29.10
2023-11-24T13:09:00.901Z,27.05
2023-11-24T13:12:12.965Z,29.77
2023-11-24T13:15:23.128Z,27.95
2023-11-24T13:18:25.251Z,27.15
2023-11-24T13:21:27.314Z,27.90
2023-11-24T13:24:32.790Z,28.65
2023-11-24T13:27:34.935Z,28.33
2023-11-24T13:30:36.859Z,29.80
2023-11-24T13:33:38.718Z,28.70
2023-11-24T13:36:42.460Z,28.45
2023-11-24T13:39:46.795Z,26.95
2023-11-24T13:42:48.985Z,26.58
2023-11-24T13:45:52.803Z,27.42
2023-11-24T13:48:54.852Z,31.33
2023-11-24T13:51:56.957Z,29.30
2023-11-24T13:55:01.643Z,27.48
2023-11-24T13:58:04.235Z,25.58
2023-11-24T14:01:07.243Z,30.77
2023-11-24T14:04:12.622Z,26.88
2023-11-24T14:07:15.807Z,29.30
2023-11-24T14:10:20.241Z,29.73
2023-11-24T14:13:22.697Z,27.92
2023-11-24T14:16:25.009Z,26.70
2023-11-24T14:19:27.165Z,28.70
2023-11-24T14:22:29.044Z,26.10
2023-11-24T14:25:31.991Z,26.75
2023-11-24T14:28:33.880Z,29.27
2023-11-24T14:31:35.744Z,29.98
2023-11-24T14:34:38.163Z,27.92
2023-11-24T14:37:41.579Z,26.95
2023-11-24T14:40:43.565Z,27.45
2023-11-24T14:43:45.559Z,27.73
2023-11-24T14:46:47.406Z,25.52
2023-11-24T14:49:49.363Z,28.70
2023-11-24T14:52:51.197Z,24.45
2023-11-24T14:55:53.050Z,27.73
2023-11-24T14:58:54.877Z,30.15
2023-11-24T15:02:01.176Z,31.33
2023-11-24T15:05:03.291Z,32.05
2023-11-24T15:08:11.603Z,34.17
2023-11-24T15:11:16.730Z,33.92
2023-11-24T15:14:28.539Z,28.48
2023-11-24T15:17:30.468Z,30.70
2023-11-24T15:20:33.911Z,30.35
2023-11-24T15:23:35.865Z,30.80
2023-11-24T15:26:38.011Z,30.42
2023-11-24T15:29:40.887Z,29.88
2023-11-24T15:32:43.452Z,30.38
2023-11-24T15:35:50.041Z,31.13
2023-11-24T15:38:51.931Z,31.08
2023-11-24T15:41:53.717Z,32.38
2023-11-24T15:44:58.181Z,28.55
2023-11-24T15:48:07.604Z,28.17
2023-11-24T15:51:10.722Z,28.70
2023-11-24T15:54:13.798Z,29.63
2023-11-24T15:57:15.690Z,26.08
2023-11-24T16:00:27.258Z,28.55
2023-11-24T16:03:30.243Z,29.05
2023-11-24T16:06:32.824Z,26.38
2023-11-24T16:09:36.406Z,28.83
2023-11-24T16:12:38.386Z,30.60
2023-11-24T16:15:44.042Z,32.30
2023-11-24T16:18:46.211Z,29.98
2023-11-24T16:21:48.300Z,31.27
2023-11-24T16:24:52.764Z,31.23
2023-11-24T16:27:54.731Z,30.42
2023-11-24T16:30:56.557Z,28.05
2023-11-24T16:33:58.390Z,27.40
2023-11-24T16:37:00.495Z,24.30
2023-11-24T16:40:04.014Z,25.33
2023-11-24T16:43:06.674Z,28.90
2023-11-24T16:46:08.862Z,26.42
2023-11-24T16:49:12.191Z,25.38
2023-11-24T16:52:14.342Z,27.80
2023-11-24T16:55:17.320Z,27.48
2023-11-24T16:58:20.200Z,28.85
2023-11-24T17:01:22.468Z,28.45
2023-11-24T17:04:25.355Z,23.65
2023-11-24T17:07:29.349Z,25.10
2023-11-24T17:10:32.014Z,24.02
2023-11-24T17:13:36.877Z,22.75
2023-11-24T17:16:38.992Z,24.30
2023-11-24T17:19:41.090Z,23.45
2023-11-24T17:22:43.074Z,23.17
2023-11-24T17:25:46.649Z,26.70
2023-11-24T17:28:54.055Z,24.95
2023-11-24T17:31:56.656Z,26.25
2023-11-24T17:34:59.113Z,28.92
2023-11-24T17:38:01.057Z,33.92
2023-11-24T17:41:03.246Z,29.98
2023-11-24T17:44:15.912Z,27.60
2023-11-24T17:47:17.889Z,25.05
2023-11-24T17:50:20.930Z,27.90
2023-11-24T17:53:24.192Z,21.77
2023-11-24T17:56:26.403Z,24.00
2023-11-24T17:59:28.402Z,21.70
2023-11-24T18:02:31.243Z,19.05
2023-11-24T18:05:34.267Z,14.18
2023-11-24T18:08:37.119Z,12.18
2023-11-24T18:11:39.682Z,11.15
2023-11-24T18:14:41.701Z,11.88
2023-11-24T18:17:43.793Z,10.00
2023-11-24T18:20:46.958Z,7.72
2023-11-24T18:23:49.299Z,7.70
2023-11-24T18:26:52.449Z,6.35
2023-11-24T18:29:54.414Z,5.38
2023-11-24T18:32:56.350Z,6.72
2023-11-24T18:35:58.441Z,6.22
2023-11-24T18:39:00.495Z,4.82
2023-11-24T18:42:03.675Z,3.83
2023-11-24T18:45:07.918Z,4.43
2023-11-24T18:48:10.090Z,4.72
2023-11-24T18:51:12.983Z,5.80
2023-11-24T18:54:15.165Z,5.57
2023-11-24T18:57:17.632Z,7.40
2023-11-24T19:00:20.437Z,6.88
2023-11-24T19:03:22.907Z,7.75
2023-11-24T19:06:25.286Z,9.88
2023-11-24T19:09:27.251Z,9.63
2023-11-24T19:12:29.151Z,10.70
2023-11-24T19:15:31.085Z,9.93
2023-11-24T19:18:33.133Z,13.05
2023-11-24T19:21:35.420Z,15.63
2023-11-24T19:24:39.646Z,14.48
2023-11-24T19:27:41.667Z,15.57
2023-11-24T19:30:44.651Z,16.70
2023-11-24T19:33:46.621Z,14.38
2023-11-24T19:36:48.623Z,15.60
2023-11-24T19:39:51.719Z,14.20
2023-11-24T19:42:53.694Z,12.52
2023-11-24T19:45:57.000Z,17.55
2023-11-24T19:48:58.944Z,24.60
2023-11-24T19:52:01.085Z,24.27
2023-11-24T19:55:03.801Z,23.40
2023-11-24T19:58:06.353Z,22.27
2023-11-24T20:01:08.374Z,22.27
2023-11-24T20:04:10.437Z,16.25
2023-11-24T20:07:12.836Z,17.10
2023-11-24T20:10:14.986Z,16.27
2023-11-24T20:13:17.056Z,14.70
2023-11-24T20:16:19.496Z,14.63
2023-11-24T20:19:21.551Z,14.90
2023-11-24T20:22:23.507Z,13.82
2023-11-24T20:25:25.579Z,13.48
2023-11-24T20:28:28.882Z,12.95
2023-11-24T20:31:30.962Z,11.98
2023-11-24T20:34:33.354Z,12.00
2023-11-24T20:37:35.451Z,12.60
2023-11-24T20:40:37.472Z,11.73
2023-11-24T20:43:40.467Z,13.02
2023-11-24T20:46:45.086Z,20.65
2023-11-24T20:49:47.160Z,18.05
2023-11-24T20:52:49.788Z,23.50
2023-11-24T20:55:53.590Z,22.05
2023-11-24T20:58:55.641Z,18.95
2023-11-24T21:01:58.546Z,19.30
2023-11-24T21:05:00.625Z,16.63
2023-11-24T21:08:02.660Z,15.68
2023-11-24T21:11:04.657Z,14.80
2023-11-24T21:14:06.655Z,17.50
2023-11-24T21:17:08.625Z,14.80
2023-11-24T21:20:11.421Z,12.75
2023-11-24T21:23:13.500Z,13.35
2023-11-24T21:26:19.395Z,12.98
2023-11-24T21:29:21.372Z,10.93
2023-11-24T21:32:23.429Z,10.90
2023-11-24T21:35:25.617Z,11.65
2023-11-24T21:38:27.580Z,12.43
2023-11-24T21:41:29.641Z,13.57
2023-11-24T21:44:31.574Z,10.48
2023-11-24T21:47:34.633Z,11.88
2023-11-24T21:50:36.654Z,11.52
2023-11-24T21:53:40.933Z,12.23
2023-11-24T21:56:42.922Z,13.07
2023-11-24T21:59:44.942Z,12.20
2023-11-24T22:02:47.588Z,12.27
2023-11-24T22:05:49.738Z,14.20
2023-11-24T22:08:55.415Z,15.35
2023-11-24T22:11:57.505Z,15.20
2023-11-24T22:15:02.412Z,17.48
2023-11-24T22:18:05.069Z,18.35
2023-11-24T22:21:08.760Z,20.77
2023-11-24T22:24:11.154Z,23.98
2023-11-24T22:27:13.099Z,24.95
2023-11-24T22:30:15.403Z,24.75
2023-11-24T22:33:17.313Z,24.40
2023-11-24T22:36:20.910Z,21.17
2023-11-24T22:39:23.417Z,19.98
2023-11-24T22:42:25.928Z,20.17
2023-11-24T22:45:27.991Z,19.75
2023-11-24T22:48:30.014Z,23.10
2023-11-24T22:51:32.101Z,21.60
2023-11-24T22:54:37.001Z,18.98
2023-11-24T22:57:41.011Z,17.73
2023-11-24T23:00:47.159Z,17.52
2023-11-24T23:03:54.774Z,19.73
2023-11-24T23:06:57.307Z,22.15
2023-11-24T23:09:59.651Z,23.58
2023-11-24T23:13:03.067Z,20.98
2023-11-24T23:16:05.745Z,21.20
2023-11-24T23:19:07.796Z,25.92
2023-11-24T23:22:10.121Z,23.58
2023-11-24T23:25:12.327Z,24.70
2023-11-24T23:28:14.423Z,25.42
2023-11-24T23:31:18.128Z,24.75
2023-11-24T23:34:22.292Z,26.20
2023-11-24T23:37:24.245Z,21.25
2023-11-24T23:40:26.415Z,21.30
2023-11-24T23:43:32.628Z,18.25
2023-11-24T23:46:34.724Z,19.50
2023-11-24T23:49:36.815Z,15.27
2023-11-24T23:52:38.985Z,15.45
2023-11-24T23:55:40.954Z,16.10
2023-11-24T23:58:43.143Z,17.30
